sensor_id;sensor_type;location;lat;lon;timestamp;P1;durP1;ratioP1;P2;durP2;ratioP2
25247;SDS011;13191;47.472;11.214;2023-08-06T00:00:06;2.25;;;0.98;;
25247;SDS011;13191;47.472;11.214;2023-08-06T00:02:33;1.98;;;1.02;;
25247;SDS011;13191;47.472;11.214;2023-08-06T00:04:58;1.92;;;0.90;;
25247;SDS011;13191;47.472;11.214;2023-08-06T00:07:24;2.05;;;1.00;;
25247;SDS011;13191;47.472;11.214;2023-08-06T00:09:50;2.28;;;1.00;;
25247;SDS011;13191;47.472;11.214;2023-08-06T00:12:15;1.63;;;1.00;;
25247;SDS011;13191;47.472;11.214;2023-08-06T00:14:41;4.05;;;1.17;;
25247;SDS011;13191;47.472;11.214;2023-08-06T00:17:07;1.73;;;0.65;;
25247;SDS011;13191;47.472;11.214;2023-08-06T00:19:33;2.40;;;1.00;;
25247;SDS011;13191;47.472;11.214;2023-08-06T00:21:58;1.77;;;0.90;;
25247;SDS011;13191;47.472;11.214;2023-08-06T00:24:24;2.47;;;0.93;;
25247;SDS011;13191;47.472;11.214;2023-08-06T00:26:49;1.80;;;0.82;;
25247;SDS011;13191;47.472;11.214;2023-08-06T00:29:15;1.95;;;0.95;;
25247;SDS011;13191;47.472;11.214;2023-08-06T00:31:40;1.27;;;0.90;;
25247;SDS011;13191;47.472;11.214;2023-08-06T00:34:06;1.45;;;0.90;;
25247;SDS011;13191;47.472;11.214;2023-08-06T00:36:31;1.88;;;0.98;;
25247;SDS011;13191;47.472;11.214;2023-08-06T00:38:57;4.28;;;1.00;;
25247;SDS011;13191;47.472;11.214;2023-08-06T00:41:22;1.63;;;0.93;;
25247;SDS011;13191;47.472;11.214;2023-08-06T00:43:48;2.30;;;1.00;;
25247;SDS011;13191;47.472;11.214;2023-08-06T00:46:14;4.85;;;0.90;;
25247;SDS011;13191;47.472;11.214;2023-08-06T00:48:42;1.42;;;0.90;;
25247;SDS011;13191;47.472;11.214;2023-08-06T00:51:08;2.92;;;1.27;;
25247;SDS011;13191;47.472;11.214;2023-08-06T00:53:35;2.17;;;0.90;;
25247;SDS011;13191;47.472;11.214;2023-08-06T00:56:02;1.98;;;1.00;;
25247;SDS011;13191;47.472;11.214;2023-08-06T00:58:28;1.63;;;0.90;;
25247;SDS011;13191;47.472;11.214;2023-08-06T01:00:54;1.95;;;1.10;;
25247;SDS011;13191;47.472;11.214;2023-08-06T01:03:19;2.75;;;1.40;;
25247;SDS011;13191;47.472;11.214;2023-08-06T01:05:45;2.47;;;0.93;;
25247;SDS011;13191;47.472;11.214;2023-08-06T01:10:59;2.33;;;1.00;;
25247;SDS011;13191;47.472;11.214;2023-08-06T01:13:48;1.48;;;0.85;;
25247;SDS011;13191;47.472;11.214;2023-08-06T01:16:20;8.23;;;1.42;;
25247;SDS011;13191;47.472;11.214;2023-08-06T01:18:49;1.98;;;1.00;;
25247;SDS011;13191;47.472;11.214;2023-08-06T01:21:15;3.35;;;1.20;;
25247;SDS011;13191;47.472;11.214;2023-08-06T01:23:41;3.25;;;1.30;;
25247;SDS011;13191;47.472;11.214;2023-08-06T01:31:31;1.70;;;0.90;;
25247;SDS011;13191;47.472;11.214;2023-08-06T01:34:01;1.73;;;0.80;;
25247;SDS011;13191;47.472;11.214;2023-08-06T01:36:30;3.10;;;0.95;;
25247;SDS011;13191;47.472;11.214;2023-08-06T01:38:56;2.42;;;1.13;;
25247;SDS011;13191;47.472;11.214;2023-08-06T01:41:22;1.88;;;0.93;;
25247;SDS011;13191;47.472;11.214;2023-08-06T01:43:48;2.30;;;1.20;;
25247;SDS011;13191;47.472;11.214;2023-08-06T01:46:13;1.90;;;1.00;;
25247;SDS011;13191;47.472;11.214;2023-08-06T01:48:39;1.52;;;0.80;;
25247;SDS011;13191;47.472;11.214;2023-08-06T01:51:04;1.58;;;0.80;;
25247;SDS011;13191;47.472;11.214;2023-08-06T01:53:31;1.98;;;0.90;;
25247;SDS011;13191;47.472;11.214;2023-08-06T01:55:57;4.38;;;1.10;;
25247;SDS011;13191;47.472;11.214;2023-08-06T01:58:22;2.05;;;0.88;;
25247;SDS011;13191;47.472;11.214;2023-08-06T02:00:48;1.33;;;0.70;;
25247;SDS011;13191;47.472;11.214;2023-08-06T02:03:13;1.38;;;0.65;;
25247;SDS011;13191;47.472;11.214;2023-08-06T02:05:39;1.10;;;0.70;;
25247;SDS011;13191;47.472;11.214;2023-08-06T02:08:05;2.70;;;0.80;;
25247;SDS011;13191;47.472;11.214;2023-08-06T02:10:30;4.13;;;0.77;;
25247;SDS011;13191;47.472;11.214;2023-08-06T02:12:56;1.40;;;0.70;;
25247;SDS011;13191;47.472;11.214;2023-08-06T02:15:22;2.80;;;0.60;;
25247;SDS011;13191;47.472;11.214;2023-08-06T02:17:47;1.50;;;0.77;;
25247;SDS011;13191;47.472;11.214;2023-08-06T02:20:13;0.85;;;0.60;;
25247;SDS011;13191;47.472;11.214;2023-08-06T02:22:38;1.40;;;0.70;;
25247;SDS011;13191;47.472;11.214;2023-08-06T02:25:04;1.08;;;0.50;;
25247;SDS011;13191;47.472;11.214;2023-08-06T02:27:30;1.23;;;0.52;;
25247;SDS011;13191;47.472;11.214;2023-08-06T02:29:55;0.90;;;0.45;;
25247;SDS011;13191;47.472;11.214;2023-08-06T02:32:21;0.82;;;0.45;;
25247;SDS011;13191;47.472;11.214;2023-08-06T02:34:47;0.82;;;0.50;;
25247;SDS011;13191;47.472;11.214;2023-08-06T02:37:14;1.25;;;0.63;;
25247;SDS011;13191;47.472;11.214;2023-08-06T02:39:40;1.20;;;0.50;;
25247;SDS011;13191;47.472;11.214;2023-08-06T02:42:06;1.00;;;0.60;;
25247;SDS011;13191;47.472;11.214;2023-08-06T02:44:32;0.90;;;0.50;;
25247;SDS011;13191;47.472;11.214;2023-08-06T02:46:59;1.13;;;0.60;;
25247;SDS011;13191;47.472;11.214;2023-08-06T02:49:24;0.98;;;0.57;;
25247;SDS011;13191;47.472;11.214;2023-08-06T02:51:50;3.83;;;0.70;;
25247;SDS011;13191;47.472;11.214;2023-08-06T02:54:17;1.25;;;0.43;;
25247;SDS011;13191;47.472;11.214;2023-08-06T02:56:43;1.55;;;0.80;;
25247;SDS011;13191;47.472;11.214;2023-08-06T02:59:10;2.03;;;0.98;;
25247;SDS011;13191;47.472;11.214;2023-08-06T03:01:36;0.90;;;0.57;;
25247;SDS011;13191;47.472;11.214;2023-08-06T03:04:01;1.10;;;0.60;;
25247;SDS011;13191;47.472;11.214;2023-08-06T03:06:27;2.28;;;0.70;;
25247;SDS011;13191;47.472;11.214;2023-08-06T03:08:53;0.90;;;0.52;;
25247;SDS011;13191;47.472;11.214;2023-08-06T03:11:19;1.30;;;0.45;;
25247;SDS011;13191;47.472;11.214;2023-08-06T03:13:44;1.13;;;0.70;;
25247;SDS011;13191;47.472;11.214;2023-08-06T03:16:10;1.15;;;0.60;;
25247;SDS011;13191;47.472;11.214;2023-08-06T03:18:35;1.17;;;0.55;;
25247;SDS011;13191;47.472;11.214;2023-08-06T03:21:01;5.60;;;0.80;;
25247;SDS011;13191;47.472;11.214;2023-08-06T03:23:26;1.15;;;0.50;;
25247;SDS011;13191;47.472;11.214;2023-08-06T03:25:52;1.17;;;0.50;;
25247;SDS011;13191;47.472;11.214;2023-08-06T03:28:17;0.43;;;0.35;;
25247;SDS011;13191;47.472;11.214;2023-08-06T03:30:43;1.10;;;0.65;;
25247;SDS011;13191;47.472;11.214;2023-08-06T03:33:09;1.42;;;0.43;;
25247;SDS011;13191;47.472;11.214;2023-08-06T03:35:34;0.90;;;0.47;;
25247;SDS011;13191;47.472;11.214;2023-08-06T03:38:00;1.10;;;0.45;;
25247;SDS011;13191;47.472;11.214;2023-08-06T03:40:25;2.30;;;0.40;;
25247;SDS011;13191;47.472;11.214;2023-08-06T03:42:51;1.05;;;0.50;;
25247;SDS011;13191;47.472;11.214;2023-08-06T03:45:17;1.35;;;0.63;;
25247;SDS011;13191;47.472;11.214;2023-08-06T03:47:42;0.75;;;0.50;;
25247;SDS011;13191;47.472;11.214;2023-08-06T03:50:08;1.77;;;0.68;;
25247;SDS011;13191;47.472;11.214;2023-08-06T03:52:34;2.95;;;0.70;;
25247;SDS011;13191;47.472;11.214;2023-08-06T03:54:59;1.15;;;0.55;;
25247;SDS011;13191;47.472;11.214;2023-08-06T03:57:25;1.73;;;0.80;;
25247;SDS011;13191;47.472;11.214;2023-08-06T03:59:50;1.10;;;0.50;;
25247;SDS011;13191;47.472;11.214;2023-08-06T04:02:16;1.15;;;0.68;;
25247;SDS011;13191;47.472;11.214;2023-08-06T04:04:41;1.40;;;0.70;;
25247;SDS011;13191;47.472;11.214;2023-08-06T04:07:07;1.10;;;0.63;;
25247;SDS011;13191;47.472;11.214;2023-08-06T04:09:32;1.83;;;0.73;;
25247;SDS011;13191;47.472;11.214;2023-08-06T04:11:58;1.17;;;0.70;;
25247;SDS011;13191;47.472;11.214;2023-08-06T04:14:26;1.02;;;0.60;;
25247;SDS011;13191;47.472;11.214;2023-08-06T04:16:52;1.63;;;0.80;;
25247;SDS011;13191;47.472;11.214;2023-08-06T04:19:18;4.97;;;0.52;;
25247;SDS011;13191;47.472;11.214;2023-08-06T04:21:43;4.47;;;0.85;;
25247;SDS011;13191;47.472;11.214;2023-08-06T04:24:09;5.60;;;0.65;;
25247;SDS011;13191;47.472;11.214;2023-08-06T04:26:34;4.45;;;0.63;;
25247;SDS011;13191;47.472;11.214;2023-08-06T04:29:00;2.30;;;0.70;;
25247;SDS011;13191;47.472;11.214;2023-08-06T04:31:26;1.17;;;0.63;;
25247;SDS011;13191;47.472;11.214;2023-08-06T04:33:51;1.40;;;0.80;;
25247;SDS011;13191;47.472;11.214;2023-08-06T04:36:17;8.48;;;0.82;;
25247;SDS011;13191;47.472;11.214;2023-08-06T04:38:42;2.25;;;0.93;;
25247;SDS011;13191;47.472;11.214;2023-08-06T04:41:10;3.28;;;0.68;;
25247;SDS011;13191;47.472;11.214;2023-08-06T04:43:36;19.90;;;1.55;;
25247;SDS011;13191;47.472;11.214;2023-08-06T04:46:02;0.60;;;0.40;;
25247;SDS011;13191;47.472;11.214;2023-08-06T04:48:27;0.70;;;0.50;;
25247;SDS011;13191;47.472;11.214;2023-08-06T04:50:53;13.63;;;0.90;;
25247;SDS011;13191;47.472;11.214;2023-08-06T04:53:19;5.28;;;0.82;;
25247;SDS011;13191;47.472;11.214;2023-08-06T04:55:45;6.15;;;1.10;;
25247;SDS011;13191;47.472;11.214;2023-08-06T04:58:10;7.43;;;1.05;;
25247;SDS011;13191;47.472;11.214;2023-08-06T05:00:37;1.05;;;0.52;;
25247;SDS011;13191;47.472;11.214;2023-08-06T05:03:03;10.57;;;0.98;;
25247;SDS011;13191;47.472;11.214;2023-08-06T05:05:28;0.88;;;0.40;;
25247;SDS011;13191;47.472;11.214;2023-08-06T05:07:54;8.07;;;0.75;;
25247;SDS011;13191;47.472;11.214;2023-08-06T05:10:23;0.80;;;0.40;;
25247;SDS011;13191;47.472;11.214;2023-08-06T05:12:50;11.82;;;0.85;;
25247;SDS011;13191;47.472;11.214;2023-08-06T05:15:15;0.90;;;0.50;;
25247;SDS011;13191;47.472;11.214;2023-08-06T05:17:41;6.07;;;0.98;;
25247;SDS011;13191;47.472;11.214;2023-08-06T05:20:06;5.95;;;0.43;;
25247;SDS011;13191;47.472;11.214;2023-08-06T05:22:32;4.63;;;0.90;;
25247;SDS011;13191;47.472;11.214;2023-08-06T05:24:58;1.98;;;0.63;;
25247;SDS011;13191;47.472;11.214;2023-08-06T05:27:23;0.57;;;0.30;;
25247;SDS011;13191;47.472;11.214;2023-08-06T05:29:49;0.22;;;0.22;;
25247;SDS011;13191;47.472;11.214;2023-08-06T05:32:14;0.50;;;0.30;;
25247;SDS011;13191;47.472;11.214;2023-08-06T05:34:40;0.40;;;0.22;;
25247;SDS011;13191;47.472;11.214;2023-08-06T05:37:06;0.65;;;0.40;;
25247;SDS011;13191;47.472;11.214;2023-08-06T05:39:32;0.85;;;0.40;;
25247;SDS011;13191;47.472;11.214;2023-08-06T05:41:57;0.85;;;0.45;;
25247;SDS011;13191;47.472;11.214;2023-08-06T05:44:23;0.63;;;0.32;;
25247;SDS011;13191;47.472;11.214;2023-08-06T05:46:49;2.78;;;0.50;;
25247;SDS011;13191;47.472;11.214;2023-08-06T05:49:15;0.60;;;0.35;;
25247;SDS011;13191;47.472;11.214;2023-08-06T05:51:41;0.70;;;0.40;;
25247;SDS011;13191;47.472;11.214;2023-08-06T05:54:06;0.40;;;0.30;;
25247;SDS011;13191;47.472;11.214;2023-08-06T05:56:32;0.55;;;0.32;;
25247;SDS011;13191;47.472;11.214;2023-08-06T05:58:58;0.70;;;0.32;;
25247;SDS011;13191;47.472;11.214;2023-08-06T06:01:23;0.50;;;0.30;;
25247;SDS011;13191;47.472;11.214;2023-08-06T06:03:49;0.60;;;0.32;;
25247;SDS011;13191;47.472;11.214;2023-08-06T06:06:14;0.90;;;0.50;;
25247;SDS011;13191;47.472;11.214;2023-08-06T06:08:41;0.70;;;0.35;;
25247;SDS011;13191;47.472;11.214;2023-08-06T06:11:07;0.80;;;0.30;;
25247;SDS011;13191;47.472;11.214;2023-08-06T06:13:32;0.65;;;0.38;;
25247;SDS011;13191;47.472;11.214;2023-08-06T06:15:58;0.95;;;0.32;;
25247;SDS011;13191;47.472;11.214;2023-08-06T06:18:23;3.20;;;0.60;;
25247;SDS011;13191;47.472;11.214;2023-08-06T06:20:49;0.77;;;0.40;;
25247;SDS011;13191;47.472;11.214;2023-08-06T06:23:14;5.53;;;0.50;;
25247;SDS011;13191;47.472;11.214;2023-08-06T06:25:43;0.20;;;0.20;;
25247;SDS011;13191;47.472;11.214;2023-08-06T06:28:13;0.50;;;0.35;;
25247;SDS011;13191;47.472;11.214;2023-08-06T06:30:38;0.20;;;0.20;;
25247;SDS011;13191;47.472;11.214;2023-08-06T06:33:05;0.90;;;0.43;;
25247;SDS011;13191;47.472;11.214;2023-08-06T06:35:31;0.90;;;0.50;;
25247;SDS011;13191;47.472;11.214;2023-08-06T06:37:56;3.90;;;0.50;;
25247;SDS011;13191;47.472;11.214;2023-08-06T06:40:22;1.08;;;0.60;;
25247;SDS011;13191;47.472;11.214;2023-08-06T06:42:48;0.40;;;0.30;;
25247;SDS011;13191;47.472;11.214;2023-08-06T06:45:13;0.85;;;0.45;;
25247;SDS011;13191;47.472;11.214;2023-08-06T06:47:39;1.05;;;0.60;;
25247;SDS011;13191;47.472;11.214;2023-08-06T06:50:04;0.80;;;0.50;;
25247;SDS011;13191;47.472;11.214;2023-08-06T06:52:30;0.82;;;0.35;;
25247;SDS011;13191;47.472;11.214;2023-08-06T06:54:56;2.47;;;0.57;;
25247;SDS011;13191;47.472;11.214;2023-08-06T06:57:21;1.02;;;0.45;;
25247;SDS011;13191;47.472;11.214;2023-08-06T06:59:47;0.70;;;0.50;;
25247;SDS011;13191;47.472;11.214;2023-08-06T07:02:12;0.85;;;0.50;;
25247;SDS011;13191;47.472;11.214;2023-08-06T07:04:38;1.52;;;0.50;;
25247;SDS011;13191;47.472;11.214;2023-08-06T07:07:03;0.45;;;0.35;;
25247;SDS011;13191;47.472;11.214;2023-08-06T07:09:29;1.92;;;0.60;;
25247;SDS011;13191;47.472;11.214;2023-08-06T07:11:55;1.20;;;0.45;;
25247;SDS011;13191;47.472;11.214;2023-08-06T07:14:20;1.00;;;0.40;;
25247;SDS011;13191;47.472;11.214;2023-08-06T07:16:46;0.88;;;0.50;;
25247;SDS011;13191;47.472;11.214;2023-08-06T07:19:12;1.92;;;0.57;;
25247;SDS011;13191;47.472;11.214;2023-08-06T07:21:37;3.15;;;0.50;;
25247;SDS011;13191;47.472;11.214;2023-08-06T07:24:03;4.00;;;0.60;;
25247;SDS011;13191;47.472;11.214;2023-08-06T07:26:29;0.85;;;0.50;;
25247;SDS011;13191;47.472;11.214;2023-08-06T07:28:54;0.90;;;0.40;;
25247;SDS011;13191;47.472;11.214;2023-08-06T07:31:20;1.48;;;0.60;;
25247;SDS011;13191;47.472;11.214;2023-08-06T07:33:45;1.67;;;0.50;;
25247;SDS011;13191;47.472;11.214;2023-08-06T07:36:11;0.70;;;0.50;;
25247;SDS011;13191;47.472;11.214;2023-08-06T07:38:38;1.10;;;0.43;;
25247;SDS011;13191;47.472;11.214;2023-08-06T07:41:03;1.30;;;0.75;;
25247;SDS011;13191;47.472;11.214;2023-08-06T07:43:30;1.30;;;0.60;;
25247;SDS011;13191;47.472;11.214;2023-08-06T07:45:59;1.60;;;0.80;;
25247;SDS011;13191;47.472;11.214;2023-08-06T07:48:25;1.73;;;0.70;;
25247;SDS011;13191;47.472;11.214;2023-08-06T07:50:52;1.95;;;0.57;;
25247;SDS011;13191;47.472;11.214;2023-08-06T07:53:19;0.95;;;0.47;;
25247;SDS011;13191;47.472;11.214;2023-08-06T07:55:49;3.47;;;0.50;;
25247;SDS011;13191;47.472;11.214;2023-08-06T07:58:16;1.30;;;0.60;;
25247;SDS011;13191;47.472;11.214;2023-08-06T08:00:41;1.20;;;0.60;;
25247;SDS011;13191;47.472;11.214;2023-08-06T08:03:10;0.60;;;0.45;;
25247;SDS011;13191;47.472;11.214;2023-08-06T08:05:37;1.50;;;0.75;;
25247;SDS011;13191;47.472;11.214;2023-08-06T08:08:03;1.83;;;0.75;;
25247;SDS011;13191;47.472;11.214;2023-08-06T08:10:29;1.35;;;0.52;;
25247;SDS011;13191;47.472;11.214;2023-08-06T08:12:55;1.02;;;0.60;;
25247;SDS011;13191;47.472;11.214;2023-08-06T08:15:21;1.95;;;0.65;;
25247;SDS011;13191;47.472;11.214;2023-08-06T08:17:46;1.80;;;0.60;;
25247;SDS011;13191;47.472;11.214;2023-08-06T08:20:12;0.82;;;0.50;;
25247;SDS011;13191;47.472;11.214;2023-08-06T08:22:38;1.95;;;0.68;;
25247;SDS011;13191;47.472;11.214;2023-08-06T08:25:04;0.98;;;0.57;;
25247;SDS011;13191;47.472;11.214;2023-08-06T08:27:30;3.17;;;0.65;;
25247;SDS011;13191;47.472;11.214;2023-08-06T08:29:56;1.98;;;0.75;;
25247;SDS011;13191;47.472;11.214;2023-08-06T08:32:21;1.55;;;0.60;;
25247;SDS011;13191;47.472;11.214;2023-08-06T08:34:47;1.40;;;0.57;;
25247;SDS011;13191;47.472;11.214;2023-08-06T08:37:13;1.13;;;0.65;;
25247;SDS011;13191;47.472;11.214;2023-08-06T08:39:38;1.17;;;0.50;;
25247;SDS011;13191;47.472;11.214;2023-08-06T08:42:05;2.05;;;0.80;;
25247;SDS011;13191;47.472;11.214;2023-08-06T08:44:32;1.90;;;0.80;;
25247;SDS011;13191;47.472;11.214;2023-08-06T08:46:59;1.13;;;0.60;;
25247;SDS011;13191;47.472;11.214;2023-08-06T08:49:25;0.98;;;0.50;;
25247;SDS011;13191;47.472;11.214;2023-08-06T08:51:52;1.13;;;0.55;;
25247;SDS011;13191;47.472;11.214;2023-08-06T08:54:19;0.95;;;0.30;;
25247;SDS011;13191;47.472;11.214;2023-08-06T08:56:47;1.52;;;0.63;;
25247;SDS011;13191;47.472;11.214;2023-08-06T08:59:13;1.50;;;0.63;;
25247;SDS011;13191;47.472;11.214;2023-08-06T09:01:39;0.98;;;0.50;;
25247;SDS011;13191;47.472;11.214;2023-08-06T09:04:05;1.63;;;0.50;;
25247;SDS011;13191;47.472;11.214;2023-08-06T09:06:32;1.08;;;0.50;;
25247;SDS011;13191;47.472;11.214;2023-08-06T09:09:08;0.45;;;0.30;;
25247;SDS011;13191;47.472;11.214;2023-08-06T09:11:44;0.60;;;0.20;;
25247;SDS011;13191;47.472;11.214;2023-08-06T09:14:11;0.30;;;0.28;;
25247;SDS011;13191;47.472;11.214;2023-08-06T09:16:37;0.65;;;0.38;;
25247;SDS011;13191;47.472;11.214;2023-08-06T09:21:41;0.47;;;0.30;;
25247;SDS011;13191;47.472;11.214;2023-08-06T09:24:10;1.55;;;0.30;;
25247;SDS011;13191;47.472;11.214;2023-08-06T09:26:37;0.55;;;0.30;;
25247;SDS011;13191;47.472;11.214;2023-08-06T09:29:07;0.65;;;0.35;;
25247;SDS011;13191;47.472;11.214;2023-08-06T09:31:48;0.63;;;0.10;;
25247;SDS011;13191;47.472;11.214;2023-08-06T09:34:18;0.52;;;0.30;;
25247;SDS011;13191;47.472;11.214;2023-08-06T09:36:46;0.22;;;0.17;;
25247;SDS011;13191;47.472;11.214;2023-08-06T09:39:25;1.50;;;0.40;;
25247;SDS011;13191;47.472;11.214;2023-08-06T09:41:55;1.60;;;0.20;;
25247;SDS011;13191;47.472;11.214;2023-08-06T09:44:22;0.35;;;0.30;;
25247;SDS011;13191;47.472;11.214;2023-08-06T09:46:55;0.35;;;0.20;;
25247;SDS011;13191;47.472;11.214;2023-08-06T09:49:24;0.32;;;0.22;;
25247;SDS011;13191;47.472;11.214;2023-08-06T09:51:51;0.30;;;0.20;;
25247;SDS011;13191;47.472;11.214;2023-08-06T09:54:20;0.43;;;0.22;;
25247;SDS011;13191;47.472;11.214;2023-08-06T09:56:47;0.40;;;0.30;;
25247;SDS011;13191;47.472;11.214;2023-08-06T09:59:13;0.35;;;0.20;;
25247;SDS011;13191;47.472;11.214;2023-08-06T10:01:40;1.55;;;0.43;;
25247;SDS011;13191;47.472;11.214;2023-08-06T10:04:06;0.45;;;0.40;;
25247;SDS011;13191;47.472;11.214;2023-08-06T10:06:33;0.52;;;0.28;;
25247;SDS011;13191;47.472;11.214;2023-08-06T10:09:03;0.55;;;0.38;;
25247;SDS011;13191;47.472;11.214;2023-08-06T10:11:29;0.30;;;0.20;;
25247;SDS011;13191;47.472;11.214;2023-08-06T10:13:58;0.98;;;0.28;;
25247;SDS011;13191;47.472;11.214;2023-08-06T10:16:28;2.00;;;0.15;;
25247;SDS011;13191;47.472;11.214;2023-08-06T10:18:54;0.20;;;0.20;;
25247;SDS011;13191;47.472;11.214;2023-08-06T10:21:23;1.20;;;0.30;;
25247;SDS011;13191;47.472;11.214;2023-08-06T10:23:53;0.32;;;0.30;;
25247;SDS011;13191;47.472;11.214;2023-08-06T10:26:19;0.30;;;0.30;;
25247;SDS011;13191;47.472;11.214;2023-08-06T10:28:45;0.10;;;0.10;;
25247;SDS011;13191;47.472;11.214;2023-08-06T10:31:11;0.20;;;0.10;;
25247;SDS011;13191;47.472;11.214;2023-08-06T10:33:40;1.45;;;0.30;;
25247;SDS011;13191;47.472;11.214;2023-08-06T10:36:08;0.15;;;0.15;;
25247;SDS011;13191;47.472;11.214;2023-08-06T10:38:34;0.82;;;0.40;;
25247;SDS011;13191;47.472;11.214;2023-08-06T10:41:08;0.15;;;0.10;;
25247;SDS011;13191;47.472;11.214;2023-08-06T10:43:42;0.40;;;0.20;;
25247;SDS011;13191;47.472;11.214;2023-08-06T10:46:10;0.10;;;0.10;;
25247;SDS011;13191;47.472;11.214;2023-08-06T10:48:40;0.40;;;0.20;;
25247;SDS011;13191;47.472;11.214;2023-08-06T10:51:07;0.38;;;0.30;;
25247;SDS011;13191;47.472;11.214;2023-08-06T10:53:34;0.30;;;0.25;;
25247;SDS011;13191;47.472;11.214;2023-08-06T10:56:00;0.13;;;0.13;;
25247;SDS011;13191;47.472;11.214;2023-08-06T10:58:30;2.05;;;0.40;;
25247;SDS011;13191;47.472;11.214;2023-08-06T11:00:59;0.43;;;0.15;;
25247;SDS011;13191;47.472;11.214;2023-08-06T11:03:26;0.10;;;0.10;;
25247;SDS011;13191;47.472;11.214;2023-08-06T11:05:52;0.20;;;0.10;;
25247;SDS011;13191;47.472;11.214;2023-08-06T11:08:23;0.43;;;0.20;;
25247;SDS011;13191;47.472;11.214;2023-08-06T11:10:59;0.10;;;0.10;;
25247;SDS011;13191;47.472;11.214;2023-08-06T11:13:34;0.10;;;0.10;;
25247;SDS011;13191;47.472;11.214;2023-08-06T11:15:59;0.10;;;0.10;;
25247;SDS011;13191;47.472;11.214;2023-08-06T11:18:25;0.10;;;0.10;;
25247;SDS011;13191;47.472;11.214;2023-08-06T11:20:50;0.43;;;0.10;;
25247;SDS011;13191;47.472;11.214;2023-08-06T11:23:16;0.10;;;0.10;;
25247;SDS011;13191;47.472;11.214;2023-08-06T11:25:45;0.20;;;0.10;;
25247;SDS011;13191;47.472;11.214;2023-08-06T11:28:11;0.10;;;0.10;;
25247;SDS011;13191;47.472;11.214;2023-08-06T11:30:37;0.75;;;0.35;;
25247;SDS011;13191;47.472;11.214;2023-08-06T11:33:03;0.75;;;0.10;;
25247;SDS011;13191;47.472;11.214;2023-08-06T11:35:33;0.20;;;0.20;;
25247;SDS011;13191;47.472;11.214;2023-08-06T11:38:00;0.43;;;0.13;;
25247;SDS011;13191;47.472;11.214;2023-08-06T11:40:25;0.00;;;0.00;;
25247;SDS011;13191;47.472;11.214;2023-08-06T11:42:51;0.10;;;0.10;;
25247;SDS011;13191;47.472;11.214;2023-08-06T11:45:21;1.85;;;0.20;;
25247;SDS011;13191;47.472;11.214;2023-08-06T11:47:51;0.05;;;0.05;;
25247;SDS011;13191;47.472;11.214;2023-08-06T11:50:25;0.38;;;0.17;;
25247;SDS011;13191;47.472;11.214;2023-08-06T11:52:57;0.13;;;0.10;;
25247;SDS011;13191;47.472;11.214;2023-08-06T11:55:25;0.00;;;0.00;;
25247;SDS011;13191;47.472;11.214;2023-08-06T11:57:51;0.35;;;0.20;;
25247;SDS011;13191;47.472;11.214;2023-08-06T12:00:17;0.38;;;0.20;;
25247;SDS011;13191;47.472;11.214;2023-08-06T12:02:45;0.10;;;0.10;;
25247;SDS011;13191;47.472;11.214;2023-08-06T12:05:12;0.10;;;0.10;;
25247;SDS011;13191;47.472;11.214;2023-08-06T12:07:39;0.10;;;0.10;;
25247;SDS011;13191;47.472;11.214;2023-08-06T12:10:09;0.10;;;0.10;;
25247;SDS011;13191;47.472;11.214;2023-08-06T12:12:35;0.10;;;0.10;;
25247;SDS011;13191;47.472;11.214;2023-08-06T12:15:02;0.10;;;0.10;;
25247;SDS011;13191;47.472;11.214;2023-08-06T12:17:28;0.10;;;0.10;;
25247;SDS011;13191;47.472;11.214;2023-08-06T12:19:54;0.10;;;0.10;;
25247;SDS011;13191;47.472;11.214;2023-08-06T12:22:19;0.10;;;0.10;;
25247;SDS011;13191;47.472;11.214;2023-08-06T12:24:45;0.10;;;0.10;;
25247;SDS011;13191;47.472;11.214;2023-08-06T12:27:12;0.25;;;0.10;;
25247;SDS011;13191;47.472;11.214;2023-08-06T12:29:41;0.60;;;0.10;;
25247;SDS011;13191;47.472;11.214;2023-08-06T12:32:08;0.10;;;0.10;;
25247;SDS011;13191;47.472;11.214;2023-08-06T12:34:34;0.10;;;0.10;;
25247;SDS011;13191;47.472;11.214;2023-08-06T12:36:59;2.92;;;0.10;;
25247;SDS011;13191;47.472;11.214;2023-08-06T12:39:25;0.28;;;0.10;;
25247;SDS011;13191;47.472;11.214;2023-08-06T12:41:53;0.10;;;0.10;;
25247;SDS011;13191;47.472;11.214;2023-08-06T12:44:19;0.38;;;0.10;;
25247;SDS011;13191;47.472;11.214;2023-08-06T12:46:45;0.38;;;0.20;;
25247;SDS011;13191;47.472;11.214;2023-08-06T12:49:10;0.20;;;0.20;;
25247;SDS011;13191;47.472;11.214;2023-08-06T12:51:36;0.10;;;0.10;;
25247;SDS011;13191;47.472;11.214;2023-08-06T12:54:01;0.10;;;0.10;;
25247;SDS011;13191;47.472;11.214;2023-08-06T12:56:27;0.00;;;0.00;;
25247;SDS011;13191;47.472;11.214;2023-08-06T12:58:54;0.10;;;0.10;;
25247;SDS011;13191;47.472;11.214;2023-08-06T13:01:19;0.10;;;0.10;;
25247;SDS011;13191;47.472;11.214;2023-08-06T13:03:45;0.28;;;0.10;;
25247;SDS011;13191;47.472;11.214;2023-08-06T13:06:10;0.10;;;0.10;;
25247;SDS011;13191;47.472;11.214;2023-08-06T13:08:37;0.00;;;0.00;;
25247;SDS011;13191;47.472;11.214;2023-08-06T13:11:02;0.75;;;0.10;;
25247;SDS011;13191;47.472;11.214;2023-08-06T13:13:28;0.10;;;0.10;;
25247;SDS011;13191;47.472;11.214;2023-08-06T13:15:54;0.10;;;0.10;;
25247;SDS011;13191;47.472;11.214;2023-08-06T13:18:19;0.00;;;0.00;;
25247;SDS011;13191;47.472;11.214;2023-08-06T13:20:45;0.08;;;0.08;;
25247;SDS011;13191;47.472;11.214;2023-08-06T13:23:12;0.10;;;0.10;;
25247;SDS011;13191;47.472;11.214;2023-08-06T13:25:40;0.10;;;0.10;;
25247;SDS011;13191;47.472;11.214;2023-08-06T13:28:06;0.10;;;0.10;;
25247;SDS011;13191;47.472;11.214;2023-08-06T13:30:31;0.10;;;0.10;;
25247;SDS011;13191;47.472;11.214;2023-08-06T13:32:57;0.10;;;0.10;;
25247;SDS011;13191;47.472;11.214;2023-08-06T13:35:23;0.10;;;0.10;;
25247;SDS011;13191;47.472;11.214;2023-08-06T13:37:49;0.10;;;0.10;;
25247;SDS011;13191;47.472;11.214;2023-08-06T13:40:14;3.83;;;0.10;;
25247;SDS011;13191;47.472;11.214;2023-08-06T13:42:40;0.10;;;0.10;;
25247;SDS011;13191;47.472;11.214;2023-08-06T13:45:06;0.10;;;0.10;;
25247;SDS011;13191;47.472;11.214;2023-08-06T13:47:32;0.10;;;0.10;;
25247;SDS011;13191;47.472;11.214;2023-08-06T13:49:57;0.20;;;0.10;;
25247;SDS011;13191;47.472;11.214;2023-08-06T13:52:24;0.10;;;0.10;;
25247;SDS011;13191;47.472;11.214;2023-08-06T13:54:51;1.17;;;0.15;;
25247;SDS011;13191;47.472;11.214;2023-08-06T13:57:17;0.10;;;0.10;;
25247;SDS011;13191;47.472;11.214;2023-08-06T13:59:42;0.10;;;0.10;;
25247;SDS011;13191;47.472;11.214;2023-08-06T14:02:08;0.10;;;0.10;;
25247;SDS011;13191;47.472;11.214;2023-08-06T14:04:34;0.20;;;0.10;;
25247;SDS011;13191;47.472;11.214;2023-08-06T14:07:00;0.10;;;0.10;;
25247;SDS011;13191;47.472;11.214;2023-08-06T14:09:26;0.08;;;0.08;;
25247;SDS011;13191;47.472;11.214;2023-08-06T14:11:51;0.28;;;0.10;;
25247;SDS011;13191;47.472;11.214;2023-08-06T14:14:17;0.00;;;0.00;;
25247;SDS011;13191;47.472;11.214;2023-08-06T14:16:42;0.10;;;0.10;;
25247;SDS011;13191;47.472;11.214;2023-08-06T14:19:08;0.00;;;0.00;;
25247;SDS011;13191;47.472;11.214;2023-08-06T14:21:33;0.10;;;0.10;;
25247;SDS011;13191;47.472;11.214;2023-08-06T14:23:59;0.10;;;0.10;;
25247;SDS011;13191;47.472;11.214;2023-08-06T14:26:24;0.10;;;0.10;;
25247;SDS011;13191;47.472;11.214;2023-08-06T14:28:50;0.00;;;0.00;;
25247;SDS011;13191;47.472;11.214;2023-08-06T14:31:19;0.52;;;0.20;;
25247;SDS011;13191;47.472;11.214;2023-08-06T14:33:45;0.28;;;0.10;;
25247;SDS011;13191;47.472;11.214;2023-08-06T14:36:11;0.10;;;0.10;;
25247;SDS011;13191;47.472;11.214;2023-08-06T14:38:36;0.00;;;0.00;;